sensor_id;sensor_type;location;lat;lon;timestamp;P1;durP1;ratioP1;P2;durP2;ratioP2
25663;SDS011;13522;50.018;20.014;2023-07-09T00:01:50;13.13;;;6.58;;
25663;SDS011;13522;50.018;20.014;2023-07-09T00:05:03;12.95;;;8.50;;
25663;SDS011;13522;50.018;20.014;2023-07-09T00:08:26;10.70;;;7.25;;
25663;SDS011;13522;50.018;20.014;2023-07-09T00:11:41;13.75;;;7.25;;
25663;SDS011;13522;50.018;20.014;2023-07-09T00:14:54;12.28;;;7.60;;
25663;SDS011;13522;50.018;20.014;2023-07-09T00:18:08;11.25;;;7.53;;
25663;SDS011;13522;50.018;20.014;2023-07-09T00:21:21;13.73;;;7.50;;
25663;SDS011;13522;50.018;20.014;2023-07-09T00:24:36;14.43;;;7.80;;
25663;SDS011;13522;50.018;20.014;2023-07-09T00:27:48;14.50;;;7.45;;
25663;SDS011;13522;50.018;20.014;2023-07-09T00:31:01;11.38;;;6.85;;
25663;SDS011;13522;50.018;20.014;2023-07-09T00:34:14;11.40;;;7.03;;
25663;SDS011;13522;50.018;20.014;2023-07-09T00:37:29;10.33;;;7.05;;
25663;SDS011;13522;50.018;20.014;2023-07-09T00:40:46;11.23;;;6.63;;
25663;SDS011;13522;50.018;20.014;2023-07-09T00:47:51;12.35;;;7.63;;
25663;SDS011;13522;50.018;20.014;2023-07-09T00:51:09;11.53;;;7.35;;
25663;SDS011;13522;50.018;20.014;2023-07-09T00:54:28;11.85;;;7.60;;
25663;SDS011;13522;50.018;20.014;2023-07-09T00:57:45;13.30;;;7.08;;
25663;SDS011;13522;50.018;20.014;2023-07-09T01:01:05;9.03;;;6.28;;
25663;SDS011;13522;50.018;20.014;2023-07-09T01:04:21;13.20;;;6.68;;
25663;SDS011;13522;50.018;20.014;2023-07-09T01:07:35;11.33;;;6.50;;
25663;SDS011;13522;50.018;20.014;2023-07-09T01:10:50;9.10;;;6.40;;
25663;SDS011;13522;50.018;20.014;2023-07-09T01:14:03;9.98;;;6.13;;
25663;SDS011;13522;50.018;20.014;2023-07-09T01:17:18;12.55;;;6.58;;
25663;SDS011;13522;50.018;20.014;2023-07-09T01:20:32;11.23;;;6.73;;
25663;SDS011;13522;50.018;20.014;2023-07-09T01:23:47;8.90;;;6.00;;
25663;SDS011;13522;50.018;20.014;2023-07-09T01:27:02;9.08;;;5.98;;
25663;SDS011;13522;50.018;20.014;2023-07-09T01:30:16;10.10;;;5.80;;
25663;SDS011;13522;50.018;20.014;2023-07-09T01:33:33;9.75;;;5.55;;
25663;SDS011;13522;50.018;20.014;2023-07-09T01:36:46;9.95;;;6.20;;
25663;SDS011;13522;50.018;20.014;2023-07-09T01:39:58;8.00;;;5.25;;
25663;SDS011;13522;50.018;20.014;2023-07-09T01:46:26;10.33;;;5.68;;
25663;SDS011;13522;50.018;20.014;2023-07-09T01:49:39;10.28;;;5.25;;
25663;SDS011;13522;50.018;20.014;2023-07-09T01:52:51;9.85;;;6.15;;
25663;SDS011;13522;50.018;20.014;2023-07-09T01:56:06;8.25;;;5.10;;
25663;SDS011;13522;50.018;20.014;2023-07-09T01:59:18;8.50;;;5.18;;
25663;SDS011;13522;50.018;20.014;2023-07-09T02:02:31;9.03;;;5.80;;
25663;SDS011;13522;50.018;20.014;2023-07-09T02:05:47;10.30;;;5.63;;
25663;SDS011;13522;50.018;20.014;2023-07-09T02:09:01;7.90;;;5.50;;
25663;SDS011;13522;50.018;20.014;2023-07-09T02:12:14;7.28;;;5.13;;
25663;SDS011;13522;50.018;20.014;2023-07-09T02:15:28;9.00;;;5.40;;
25663;SDS011;13522;50.018;20.014;2023-07-09T02:18:41;7.55;;;5.30;;
25663;SDS011;13522;50.018;20.014;2023-07-09T02:21:55;10.23;;;5.75;;
25663;SDS011;13522;50.018;20.014;2023-07-09T02:25:08;9.13;;;5.35;;
25663;SDS011;13522;50.018;20.014;2023-07-09T02:28:21;12.93;;;5.63;;
25663;SDS011;13522;50.018;20.014;2023-07-09T02:31:33;10.33;;;5.58;;
25663;SDS011;13522;50.018;20.014;2023-07-09T02:34:44;8.98;;;5.45;;
25663;SDS011;13522;50.018;20.014;2023-07-09T02:37:57;7.40;;;5.23;;
25663;SDS011;13522;50.018;20.014;2023-07-09T02:41:10;10.55;;;5.68;;
25663;SDS011;13522;50.018;20.014;2023-07-09T02:44:22;10.68;;;5.95;;
25663;SDS011;13522;50.018;20.014;2023-07-09T02:47:35;13.60;;;6.00;;
25663;SDS011;13522;50.018;20.014;2023-07-09T02:50:48;10.00;;;5.60;;
25663;SDS011;13522;50.018;20.014;2023-07-09T02:54:01;10.63;;;5.50;;
25663;SDS011;13522;50.018;20.014;2023-07-09T02:57:15;9.50;;;5.85;;
25663;SDS011;13522;50.018;20.014;2023-07-09T03:00:27;10.35;;;6.15;;
25663;SDS011;13522;50.018;20.014;2023-07-09T03:03:40;11.43;;;6.70;;
25663;SDS011;13522;50.018;20.014;2023-07-09T03:06:52;9.43;;;6.13;;
25663;SDS011;13522;50.018;20.014;2023-07-09T03:10:06;10.60;;;6.10;;
25663;SDS011;13522;50.018;20.014;2023-07-09T03:13:20;8.80;;;6.20;;
25663;SDS011;13522;50.018;20.014;2023-07-09T03:16:33;10.40;;;5.53;;
25663;SDS011;13522;50.018;20.014;2023-07-09T03:19:46;9.53;;;6.25;;
25663;SDS011;13522;50.018;20.014;2023-07-09T03:23:02;11.40;;;6.28;;
25663;SDS011;13522;50.018;20.014;2023-07-09T03:26:14;8.35;;;5.68;;
25663;SDS011;13522;50.018;20.014;2023-07-09T03:29:27;10.03;;;5.85;;
25663;SDS011;13522;50.018;20.014;2023-07-09T03:32:39;16.63;;;5.95;;
25663;SDS011;13522;50.018;20.014;2023-07-09T03:35:52;12.53;;;5.83;;
25663;SDS011;13522;50.018;20.014;2023-07-09T03:39:05;8.73;;;5.28;;
25663;SDS011;13522;50.018;20.014;2023-07-09T03:42:18;8.60;;;5.95;;
25663;SDS011;13522;50.018;20.014;2023-07-09T03:45:31;8.05;;;5.18;;
25663;SDS011;13522;50.018;20.014;2023-07-09T03:48:44;9.45;;;5.30;;
25663;SDS011;13522;50.018;20.014;2023-07-09T03:51:57;10.25;;;5.30;;
25663;SDS011;13522;50.018;20.014;2023-07-09T03:55:10;9.83;;;5.15;;
25663;SDS011;13522;50.018;20.014;2023-07-09T03:58:24;7.90;;;4.95;;
25663;SDS011;13522;50.018;20.014;2023-07-09T04:01:36;9.53;;;5.20;;
25663;SDS011;13522;50.018;20.014;2023-07-09T04:04:51;9.75;;;4.85;;
25663;SDS011;13522;50.018;20.014;2023-07-09T04:08:03;7.20;;;4.70;;
25663;SDS011;13522;50.018;20.014;2023-07-09T04:11:16;10.63;;;4.95;;
25663;SDS011;13522;50.018;20.014;2023-07-09T04:14:28;6.68;;;4.60;;
25663;SDS011;13522;50.018;20.014;2023-07-09T04:17:42;5.98;;;4.53;;
25663;SDS011;13522;50.018;20.014;2023-07-09T04:20:56;6.65;;;4.65;;
25663;SDS011;13522;50.018;20.014;2023-07-09T04:24:08;7.03;;;4.93;;
25663;SDS011;13522;50.018;20.014;2023-07-09T04:27:22;6.63;;;4.05;;
25663;SDS011;13522;50.018;20.014;2023-07-09T04:30:34;6.25;;;4.38;;
25663;SDS011;13522;50.018;20.014;2023-07-09T04:33:47;8.10;;;5.50;;
25663;SDS011;13522;50.018;20.014;2023-07-09T04:37:00;9.50;;;4.28;;
25663;SDS011;13522;50.018;20.014;2023-07-09T04:40:13;6.13;;;4.23;;
25663;SDS011;13522;50.018;20.014;2023-07-09T04:43:29;8.83;;;4.50;;
25663;SDS011;13522;50.018;20.014;2023-07-09T04:46:41;7.20;;;3.90;;
25663;SDS011;13522;50.018;20.014;2023-07-09T04:49:53;8.33;;;4.50;;
25663;SDS011;13522;50.018;20.014;2023-07-09T04:53:05;7.60;;;4.35;;
25663;SDS011;13522;50.018;20.014;2023-07-09T04:56:18;6.05;;;4.15;;
25663;SDS011;13522;50.018;20.014;2023-07-09T04:59:33;6.18;;;4.05;;
25663;SDS011;13522;50.018;20.014;2023-07-09T05:02:46;5.88;;;3.90;;
25663;SDS011;13522;50.018;20.014;2023-07-09T05:05:58;9.18;;;4.20;;
25663;SDS011;13522;50.018;20.014;2023-07-09T05:09:11;7.05;;;5.13;;
25663;SDS011;13522;50.018;20.014;2023-07-09T05:12:25;4.95;;;3.95;;
25663;SDS011;13522;50.018;20.014;2023-07-09T05:15:39;6.20;;;3.95;;
25663;SDS011;13522;50.018;20.014;2023-07-09T05:18:53;6.63;;;3.73;;
25663;SDS011;13522;50.018;20.014;2023-07-09T05:22:06;7.20;;;4.55;;
25663;SDS011;13522;50.018;20.014;2023-07-09T05:25:18;9.18;;;5.33;;
25663;SDS011;13522;50.018;20.014;2023-07-09T05:28:30;6.55;;;4.33;;
25663;SDS011;13522;50.018;20.014;2023-07-09T05:31:43;6.30;;;4.68;;
25663;SDS011;13522;50.018;20.014;2023-07-09T05:34:56;7.40;;;4.70;;
25663;SDS011;13522;50.018;20.014;2023-07-09T05:38:08;5.25;;;4.03;;
25663;SDS011;13522;50.018;20.014;2023-07-09T05:41:23;6.18;;;4.20;;
25663;SDS011;13522;50.018;20.014;2023-07-09T05:44:35;6.80;;;4.18;;
25663;SDS011;13522;50.018;20.014;2023-07-09T05:47:48;10.88;;;5.38;;
25663;SDS011;13522;50.018;20.014;2023-07-09T05:51:00;8.70;;;5.13;;
25663;SDS011;13522;50.018;20.014;2023-07-09T05:54:14;5.73;;;3.70;;
25663;SDS011;13522;50.018;20.014;2023-07-09T05:57:27;5.73;;;3.40;;
25663;SDS011;13522;50.018;20.014;2023-07-09T06:00:39;4.90;;;3.70;;
25663;SDS011;13522;50.018;20.014;2023-07-09T06:03:52;6.15;;;3.75;;
25663;SDS011;13522;50.018;20.014;2023-07-09T06:07:05;10.00;;;5.60;;
25663;SDS011;13522;50.018;20.014;2023-07-09T06:10:18;9.40;;;4.73;;
25663;SDS011;13522;50.018;20.014;2023-07-09T06:13:30;9.08;;;4.33;;
25663;SDS011;13522;50.018;20.014;2023-07-09T06:16:43;5.88;;;3.83;;
25663;SDS011;13522;50.018;20.014;2023-07-09T06:19:55;7.28;;;4.35;;
25663;SDS011;13522;50.018;20.014;2023-07-09T06:23:09;7.43;;;4.83;;
25663;SDS011;13522;50.018;20.014;2023-07-09T06:26:21;8.15;;;5.00;;
25663;SDS011;13522;50.018;20.014;2023-07-09T06:29:33;6.68;;;4.45;;
25663;SDS011;13522;50.018;20.014;2023-07-09T06:32:45;10.75;;;4.28;;
25663;SDS011;13522;50.018;20.014;2023-07-09T06:35:58;4.55;;;3.35;;
25663;SDS011;13522;50.018;20.014;2023-07-09T06:39:11;6.35;;;3.88;;
25663;SDS011;13522;50.018;20.014;2023-07-09T06:42:24;15.83;;;10.38;;
25663;SDS011;13522;50.018;20.014;2023-07-09T06:45:50;7.05;;;5.00;;
25663;SDS011;13522;50.018;20.014;2023-07-09T06:49:05;10.70;;;7.10;;
25663;SDS011;13522;50.018;20.014;2023-07-09T06:52:17;6.08;;;4.18;;
25663;SDS011;13522;50.018;20.014;2023-07-09T06:55:32;9.38;;;6.35;;
25663;SDS011;13522;50.018;20.014;2023-07-09T06:58:45;7.63;;;4.00;;
25663;SDS011;13522;50.018;20.014;2023-07-09T07:01:57;8.03;;;3.73;;
25663;SDS011;13522;50.018;20.014;2023-07-09T07:05:10;6.40;;;3.18;;
25663;SDS011;13522;50.018;20.014;2023-07-09T07:08:23;4.98;;;3.40;;
25663;SDS011;13522;50.018;20.014;2023-07-09T07:11:36;6.15;;;3.68;;
25663;SDS011;13522;50.018;20.014;2023-07-09T07:14:48;5.90;;;3.33;;
25663;SDS011;13522;50.018;20.014;2023-07-09T07:18:01;6.13;;;3.80;;
25663;SDS011;13522;50.018;20.014;2023-07-09T07:21:13;4.25;;;2.85;;
25663;SDS011;13522;50.018;20.014;2023-07-09T07:24:25;5.13;;;3.35;;
25663;SDS011;13522;50.018;20.014;2023-07-09T07:27:38;5.50;;;3.53;;
25663;SDS011;13522;50.018;20.014;2023-07-09T07:30:58;4.45;;;3.28;;
25663;SDS011;13522;50.018;20.014;2023-07-09T07:34:12;6.15;;;3.30;;
25663;SDS011;13522;50.018;20.014;2023-07-09T07:37:25;9.20;;;6.23;;
25663;SDS011;13522;50.018;20.014;2023-07-09T07:40:37;6.03;;;3.53;;
25663;SDS011;13522;50.018;20.014;2023-07-09T07:43:54;7.75;;;4.40;;
25663;SDS011;13522;50.018;20.014;2023-07-09T07:47:07;6.88;;;3.40;;
25663;SDS011;13522;50.018;20.014;2023-07-09T07:50:20;6.70;;;4.35;;
25663;SDS011;13522;50.018;20.014;2023-07-09T07:53:32;8.43;;;3.63;;
25663;SDS011;13522;50.018;20.014;2023-07-09T07:56:45;5.35;;;3.10;;
25663;SDS011;13522;50.018;20.014;2023-07-09T07:59:57;4.63;;;3.00;;
25663;SDS011;13522;50.018;20.014;2023-07-09T08:03:11;5.90;;;2.98;;
25663;SDS011;13522;50.018;20.014;2023-07-09T08:06:23;14.90;;;11.45;;
25663;SDS011;13522;50.018;20.014;2023-07-09T08:09:36;5.55;;;3.78;;
25663;SDS011;13522;50.018;20.014;2023-07-09T08:12:49;8.40;;;5.65;;
25663;SDS011;13522;50.018;20.014;2023-07-09T08:16:02;10.35;;;4.83;;
25663;SDS011;13522;50.018;20.014;2023-07-09T08:22:30;7.73;;;4.10;;
25663;SDS011;13522;50.018;20.014;2023-07-09T08:25:51;4.83;;;3.40;;
25663;SDS011;13522;50.018;20.014;2023-07-09T08:29:05;9.93;;;6.18;;
25663;SDS011;13522;50.018;20.014;2023-07-09T08:32:17;8.08;;;3.95;;
25663;SDS011;13522;50.018;20.014;2023-07-09T08:35:30;10.38;;;8.25;;
25663;SDS011;13522;50.018;20.014;2023-07-09T08:38:42;11.53;;;8.60;;
25663;SDS011;13522;50.018;20.014;2023-07-09T08:41:56;5.18;;;3.70;;
25663;SDS011;13522;50.018;20.014;2023-07-09T08:45:15;9.13;;;6.43;;
25663;SDS011;13522;50.018;20.014;2023-07-09T08:48:37;5.63;;;4.63;;
25663;SDS011;13522;50.018;20.014;2023-07-09T08:51:53;7.28;;;3.63;;
25663;SDS011;13522;50.018;20.014;2023-07-09T08:55:09;5.05;;;3.40;;
25663;SDS011;13522;50.018;20.014;2023-07-09T08:58:27;7.50;;;4.40;;
25663;SDS011;13522;50.018;20.014;2023-07-09T09:01:44;8.23;;;4.78;;
25663;SDS011;13522;50.018;20.014;2023-07-09T09:05:03;6.08;;;3.58;;
25663;SDS011;13522;50.018;20.014;2023-07-09T09:08:19;13.85;;;12.45;;
25663;SDS011;13522;50.018;20.014;2023-07-09T09:11:49;5.60;;;3.88;;
25663;SDS011;13522;50.018;20.014;2023-07-09T09:15:10;9.95;;;7.40;;
25663;SDS011;13522;50.018;20.014;2023-07-09T09:18:27;9.38;;;6.73;;
25663;SDS011;13522;50.018;20.014;2023-07-09T09:21:43;15.70;;;7.75;;
25663;SDS011;13522;50.018;20.014;2023-07-09T09:25:01;4.53;;;3.70;;
25663;SDS011;13522;50.018;20.014;2023-07-09T09:28:18;11.43;;;7.93;;
25663;SDS011;13522;50.018;20.014;2023-07-09T09:31:31;7.08;;;4.85;;
25663;SDS011;13522;50.018;20.014;2023-07-09T09:34:44;5.05;;;3.65;;
25663;SDS011;13522;50.018;20.014;2023-07-09T09:37:57;11.70;;;5.05;;
25663;SDS011;13522;50.018;20.014;2023-07-09T09:41:13;7.05;;;3.45;;
25663;SDS011;13522;50.018;20.014;2023-07-09T09:44:28;5.38;;;3.38;;
25663;SDS011;13522;50.018;20.014;2023-07-09T09:47:40;12.80;;;9.00;;
25663;SDS011;13522;50.018;20.014;2023-07-09T09:50:53;9.95;;;4.00;;
25663;SDS011;13522;50.018;20.014;2023-07-09T09:54:11;10.40;;;8.00;;
25663;SDS011;13522;50.018;20.014;2023-07-09T09:57:27;8.08;;;3.38;;
25663;SDS011;13522;50.018;20.014;2023-07-09T10:00:39;7.60;;;3.08;;
25663;SDS011;13522;50.018;20.014;2023-07-09T10:03:57;8.58;;;3.83;;
25663;SDS011;13522;50.018;20.014;2023-07-09T10:07:16;11.68;;;7.93;;
25663;SDS011;13522;50.018;20.014;2023-07-09T10:10:31;8.98;;;5.83;;
25663;SDS011;13522;50.018;20.014;2023-07-09T10:13:45;4.73;;;2.98;;
25663;SDS011;13522;50.018;20.014;2023-07-09T10:17:03;4.33;;;3.68;;
25663;SDS011;13522;50.018;20.014;2023-07-09T10:20:29;8.27;;;3.80;;
25663;SDS011;13522;50.018;20.014;2023-07-09T10:23:47;7.68;;;3.25;;
25663;SDS011;13522;50.018;20.014;2023-07-09T10:27:08;6.45;;;3.80;;
25663;SDS011;13522;50.018;20.014;2023-07-09T10:30:29;5.03;;;2.90;;
25663;SDS011;13522;50.018;20.014;2023-07-09T10:33:56;4.50;;;2.90;;
25663;SDS011;13522;50.018;20.014;2023-07-09T10:37:21;3.95;;;3.10;;
25663;SDS011;13522;50.018;20.014;2023-07-09T10:40:47;5.25;;;3.33;;
25663;SDS011;13522;50.018;20.014;2023-07-09T10:44:08;9.18;;;7.75;;
25663;SDS011;13522;50.018;20.014;2023-07-09T10:47:27;6.10;;;3.53;;
25663;SDS011;13522;50.018;20.014;2023-07-09T10:50:45;6.63;;;3.80;;
25663;SDS011;13522;50.018;20.014;2023-07-09T10:54:02;8.60;;;2.93;;
25663;SDS011;13522;50.018;20.014;2023-07-09T10:57:21;7.78;;;4.70;;
25663;SDS011;13522;50.018;20.014;2023-07-09T11:00:37;3.98;;;3.20;;
25663;SDS011;13522;50.018;20.014;2023-07-09T11:03:52;5.43;;;3.95;;
25663;SDS011;13522;50.018;20.014;2023-07-09T11:07:11;8.93;;;4.05;;
25663;SDS011;13522;50.018;20.014;2023-07-09T11:10:29;6.48;;;4.08;;
25663;SDS011;13522;50.018;20.014;2023-07-09T11:13:43;4.88;;;2.73;;
25663;SDS011;13522;50.018;20.014;2023-07-09T11:17:02;9.35;;;3.35;;
25663;SDS011;13522;50.018;20.014;2023-07-09T11:20:21;7.35;;;3.03;;
25663;SDS011;13522;50.018;20.014;2023-07-09T11:23:39;6.78;;;3.68;;
25663;SDS011;13522;50.018;20.014;2023-07-09T11:26:55;4.08;;;2.90;;
25663;SDS011;13522;50.018;20.014;2023-07-09T11:30:19;5.25;;;3.40;;
25663;SDS011;13522;50.018;20.014;2023-07-09T11:33:43;7.18;;;3.03;;
25663;SDS011;13522;50.018;20.014;2023-07-09T11:36:58;5.18;;;3.53;;
25663;SDS011;13522;50.018;20.014;2023-07-09T11:40:17;5.85;;;4.15;;
25663;SDS011;13522;50.018;20.014;2023-07-09T11:43:33;6.83;;;4.38;;
25663;SDS011;13522;50.018;20.014;2023-07-09T11:46:54;6.10;;;3.15;;
25663;SDS011;13522;50.018;20.014;2023-07-09T11:50:22;5.30;;;2.70;;
25663;SDS011;13522;50.018;20.014;2023-07-09T11:53:41;4.43;;;3.38;;
25663;SDS011;13522;50.018;20.014;2023-07-09T11:56:58;6.48;;;3.30;;
25663;SDS011;13522;50.018;20.014;2023-07-09T12:00:11;6.55;;;3.55;;
25663;SDS011;13522;50.018;20.014;2023-07-09T12:03:26;6.40;;;3.63;;
25663;SDS011;13522;50.018;20.014;2023-07-09T12:06:41;4.75;;;3.30;;
25663;SDS011;13522;50.018;20.014;2023-07-09T12:09:54;4.98;;;3.75;;
25663;SDS011;13522;50.018;20.014;2023-07-09T12:13:10;5.18;;;3.05;;
25663;SDS011;13522;50.018;20.014;2023-07-09T12:16:25;4.78;;;3.30;;
25663;SDS011;13522;50.018;20.014;2023-07-09T12:22:50;7.90;;;4.35;;
25663;SDS011;13522;50.018;20.014;2023-07-09T12:26:03;8.40;;;3.28;;
25663;SDS011;13522;50.018;20.014;2023-07-09T12:29:19;9.35;;;3.13;;
25663;SDS011;13522;50.018;20.014;2023-07-09T12:32:42;4.60;;;3.40;;
25663;SDS011;13522;50.018;20.014;2023-07-09T12:35:57;5.13;;;3.35;;
25663;SDS011;13522;50.018;20.014;2023-07-09T12:39:16;5.00;;;3.15;;
25663;SDS011;13522;50.018;20.014;2023-07-09T12:42:33;4.23;;;3.20;;
25663;SDS011;13522;50.018;20.014;2023-07-09T12:45:47;4.45;;;3.33;;
25663;SDS011;13522;50.018;20.014;2023-07-09T12:49:00;7.25;;;2.83;;
25663;SDS011;13522;50.018;20.014;2023-07-09T12:52:17;8.18;;;4.10;;
25663;SDS011;13522;50.018;20.014;2023-07-09T12:55:36;4.75;;;3.00;;
25663;SDS011;13522;50.018;20.014;2023-07-09T12:58:55;4.15;;;3.45;;
25663;SDS011;13522;50.018;20.014;2023-07-09T13:02:12;8.15;;;3.98;;
25663;SDS011;13522;50.018;20.014;2023-07-09T13:05:29;7.58;;;5.93;;
25663;SDS011;13522;50.018;20.014;2023-07-09T13:08:42;7.03;;;6.05;;
25663;SDS011;13522;50.018;20.014;2023-07-09T13:11:56;5.95;;;3.83;;
25663;SDS011;13522;50.018;20.014;2023-07-09T13:15:19;9.10;;;6.73;;
25663;SDS011;13522;50.018;20.014;2023-07-09T13:18:38;7.98;;;4.58;;
25663;SDS011;13522;50.018;20.014;2023-07-09T13:21:52;11.35;;;4.43;;
25663;SDS011;13522;50.018;20.014;2023-07-09T13:25:06;5.08;;;3.30;;
25663;SDS011;13522;50.018;20.014;2023-07-09T13:28:20;5.40;;;3.35;;
25663;SDS011;13522;50.018;20.014;2023-07-09T13:31:35;5.50;;;3.05;;
25663;SDS011;13522;50.018;20.014;2023-07-09T13:34:47;5.48;;;3.18;;
25663;SDS011;13522;50.018;20.014;2023-07-09T13:38:00;6.28;;;2.80;;
25663;SDS011;13522;50.018;20.014;2023-07-09T13:41:15;4.53;;;3.28;;
25663;SDS011;13522;50.018;20.014;2023-07-09T13:44:30;6.60;;;3.38;;
25663;SDS011;13522;50.018;20.014;2023-07-09T13:47:42;7.38;;;4.10;;
25663;SDS011;13522;50.018;20.014;2023-07-09T13:50:55;5.03;;;2.90;;
25663;SDS011;13522;50.018;20.014;2023-07-09T13:54:14;6.40;;;4.20;;
25663;SDS011;13522;50.018;20.014;2023-07-09T13:57:30;4.98;;;3.68;;
25663;SDS011;13522;50.018;20.014;2023-07-09T14:00:42;4.58;;;3.63;;
25663;SDS011;13522;50.018;20.014;2023-07-09T14:03:57;10.70;;;3.30;;
25663;SDS011;13522;50.018;20.014;2023-07-09T14:07:10;12.73;;;10.63;;
25663;SDS011;13522;50.018;20.014;2023-07-09T14:10:32;12.00;;;5.25;;
25663;SDS011;13522;50.018;20.014;2023-07-09T14:13:45;5.15;;;3.53;;
25663;SDS011;13522;50.018;20.014;2023-07-09T14:16:58;6.18;;;3.80;;
25663;SDS011;13522;50.018;20.014;2023-07-09T14:20:14;5.95;;;3.20;;
25663;SDS011;13522;50.018;20.014;2023-07-09T14:23:27;6.05;;;3.38;;
25663;SDS011;13522;50.018;20.014;2023-07-09T14:26:39;5.08;;;3.93;;
25663;SDS011;13522;50.018;20.014;2023-07-09T14:29:52;5.38;;;4.00;;
25663;SDS011;13522;50.018;20.014;2023-07-09T14:33:07;6.40;;;3.63;;
25663;SDS011;13522;50.018;20.014;2023-07-09T14:36:24;5.55;;;3.55;;
25663;SDS011;13522;50.018;20.014;2023-07-09T14:39:36;10.98;;;5.83;;
25663;SDS011;13522;50.018;20.014;2023-07-09T14:42:49;15.63;;;7.78;;
25663;SDS011;13522;50.018;20.014;2023-07-09T14:46:03;6.88;;;4.30;;
25663;SDS011;13522;50.018;20.014;2023-07-09T14:49:17;7.35;;;4.68;;
25663;SDS011;13522;50.018;20.014;2023-07-09T14:52:30;8.68;;;4.20;;
25663;SDS011;13522;50.018;20.014;2023-07-09T14:55:42;7.48;;;4.20;;
25663;SDS011;13522;50.018;20.014;2023-07-09T14:58:55;8.73;;;5.23;;
25663;SDS011;13522;50.018;20.014;2023-07-09T15:02:11;4.85;;;3.50;;
25663;SDS011;13522;50.018;20.014;2023-07-09T15:05:36;4.90;;;2.95;;
25663;SDS011;13522;50.018;20.014;2023-07-09T15:08:48;10.95;;;4.23;;
25663;SDS011;13522;50.018;20.014;2023-07-09T15:12:01;6.03;;;3.35;;
25663;SDS011;13522;50.018;20.014;2023-07-09T15:15:18;7.08;;;3.98;;
25663;SDS011;13522;50.018;20.014;2023-07-09T15:18:35;5.63;;;4.10;;
25663;SDS011;13522;50.018;20.014;2023-07-09T15:21:48;4.58;;;3.40;;
25663;SDS011;13522;50.018;20.014;2023-07-09T15:25:01;7.45;;;5.13;;
25663;SDS011;13522;50.018;20.014;2023-07-09T15:28:20;6.85;;;4.73;;
25663;SDS011;13522;50.018;20.014;2023-07-09T15:31:32;8.73;;;5.00;;
25663;SDS011;13522;50.018;20.014;2023-07-09T15:34:45;8.88;;;3.33;;
25663;SDS011;13522;50.018;20.014;2023-07-09T15:37:58;8.13;;;3.85;;
25663;SDS011;13522;50.018;20.014;2023-07-09T15:41:12;10.30;;;3.90;;
25663;SDS011;13522;50.018;20.014;2023-07-09T15:44:25;6.25;;;3.63;;
25663;SDS011;13522;50.018;20.014;2023-07-09T15:47:38;4.68;;;3.48;;
25663;SDS011;13522;50.018;20.014;2023-07-09T15:50:51;4.85;;;3.50;;
25663;SDS011;13522;50.018;20.014;2023-07-09T15:54:07;8.90;;;5.25;;
25663;SDS011;13522;50.018;20.014;2023-07-09T15:57:25;5.68;;;3.33;;
25663;SDS011;13522;50.018;20.014;2023-07-09T16:00:39;3.90;;;3.43;;
25663;SDS011;13522;50.018;20.014;2023-07-09T16:03:53;8.00;;;4.45;;
25663;SDS011;13522;50.018;20.014;2023-07-09T16:07:11;7.28;;;3.60;;
25663;SDS011;13522;50.018;20.014;2023-07-09T16:10:25;6.40;;;3.65;;
25663;SDS011;13522;50.018;20.014;2023-07-09T16:13:39;6.80;;;3.68;;
25663;SDS011;13522;50.018;20.014;2023-07-09T16:16:52;6.03;;;3.65;;
25663;SDS011;13522;50.018;20.014;2023-07-09T16:20:07;5.40;;;4.10;;
25663;SDS011;13522;50.018;20.014;2023-07-09T16:23:21;7.93;;;4.58;;
25663;SDS011;13522;50.018;20.014;2023-07-09T16:26:34;6.20;;;4.15;;
25663;SDS011;13522;50.018;20.014;2023-07-09T16:29:46;7.65;;;5.73;;
25663;SDS011;13522;50.018;20.014;2023-07-09T16:32:59;6.48;;;4.73;;
25663;SDS011;13522;50.018;20.014;2023-07-09T16:36:12;6.80;;;3.80;;
25663;SDS011;13522;50.018;20.014;2023-07-09T16:39:27;4.33;;;3.15;;
25663;SDS011;13522;50.018;20.014;2023-07-09T16:42:44;6.70;;;5.03;;
25663;SDS011;13522;50.018;20.014;2023-07-09T16:45:58;5.55;;;4.83;;
25663;SDS011;13522;50.018;20.014;2023-07-09T16:49:16;8.23;;;5.40;;
25663;SDS011;13522;50.018;20.014;2023-07-09T16:52:42;4.78;;;3.93;;
25663;SDS011;13522;50.018;20.014;2023-07-09T16:55:56;7.88;;;6.13;;
25663;SDS011;13522;50.018;20.014;2023-07-09T16:59:09;6.10;;;4.10;;
25663;SDS011;13522;50.018;20.014;2023-07-09T17:02:26;7.30;;;4.50;;
25663;SDS011;13522;50.018;20.014;2023-07-09T17:05:40;8.78;;;3.85;;
25663;SDS011;13522;50.018;20.014;2023-07-09T17:08:53;41.85;;;33.65;;
25663;SDS011;13522;50.018;20.014;2023-07-09T17:12:07;15.10;;;10.53;;
25663;SDS011;13522;50.018;20.014;2023-07-09T17:15:22;5.10;;;4.60;;
25663;SDS011;13522;50.018;20.014;2023-07-09T17:18:40;9.35;;;4.60;;
25663;SDS011;13522;50.018;20.014;2023-07-09T17:21:52;4.90;;;3.80;;
25663;SDS011;13522;50.018;20.014;2023-07-09T17:25:12;10.80;;;4.23;;
25663;SDS011;13522;50.018;20.014;2023-07-09T17:28:36;7.20;;;3.63;;
25663;SDS011;13522;50.018;20.014;2023-07-09T17:31:49;5.90;;;3.43;;
25663;SDS011;13522;50.018;20.014;2023-07-09T17:35:02;11.10;;;3.65;;
25663;SDS011;13522;50.018;20.014;2023-07-09T17:38:15;6.10;;;3.60;;
25663;SDS011;13522;50.018;20.014;2023-07-09T17:41:30;6.28;;;3.55;;
25663;SDS011;13522;50.018;20.014;2023-07-09T17:44:44;9.08;;;4.00;;
25663;SDS011;13522;50.018;20.014;2023-07-09T17:47:57;7.40;;;3.05;;
25663;SDS011;13522;50.018;20.014;2023-07-09T17:51:09;15.13;;;10.60;;
25663;SDS011;13522;50.018;20.014;2023-07-09T17:54:22;15.25;;;10.90;;
25663;SDS011;13522;50.018;20.014;2023-07-09T17:57:37;12.55;;;9.05;;
25663;SDS011;13522;50.018;20.014;2023-07-09T18:00:51;11.98;;;7.95;;
25663;SDS011;13522;50.018;20.014;2023-07-09T18:04:10;8.35;;;6.75;;
25663;SDS011;13522;50.018;20.014;2023-07-09T18:07:28;15.23;;;9.18;;
25663;SDS011;13522;50.018;20.014;2023-07-09T18:10:42;11.53;;;7.03;;
25663;SDS011;13522;50.018;20.014;2023-07-09T18:13:56;12.98;;;10.10;;
25663;SDS011;13522;50.018;20.014;2023-07-09T18:17:13;12.83;;;8.68;;
25663;SDS011;13522;50.018;20.014;2023-07-09T18:20:27;16.75;;;10.58;;
25663;SDS011;13522;50.018;20.014;2023-07-09T18:23:41;13.58;;;10.60;;
25663;SDS011;13522;50.018;20.014;2023-07-09T18:26:53;41.05;;;29.28;;
25663;SDS011;13522;50.018;20.014;2023-07-09T18:30:09;34.95;;;25.18;;
25663;SDS011;13522;50.018;20.014;2023-07-09T18:33:30;21.03;;;14.93;;
25663;SDS011;13522;50.018;20.014;2023-07-09T18:36:42;22.33;;;14.63;;
25663;SDS011;13522;50.018;20.014;2023-07-09T18:39:55;18.80;;;13.75;;
25663;SDS011;13522;50.018;20.014;2023-07-09T18:43:10;17.58;;;13.40;;
25663;SDS011;13522;50.018;20.014;2023-07-09T18:46:27;13.35;;;10.78;;
25663;SDS011;13522;50.018;20.014;2023-07-09T18:49:39;24.08;;;20.52;;
25663;SDS011;13522;50.018;20.014;2023-07-09T18:52:53;29.93;;;23.55;;
25663;SDS011;13522;50.018;20.014;2023-07-09T18:56:07;22.30;;;15.93;;
25663;SDS011;13522;50.018;20.014;2023-07-09T18:59:20;15.85;;;10.75;;
25663;SDS011;13522;50.018;20.014;2023-07-09T19:02:35;16.85;;;12.23;;
25663;SDS011;13522;50.018;20.014;2023-07-09T19:05:49;12.58;;;9.70;;
25663;SDS011;13522;50.018;20.014;2023-07-09T19:09:04;15.85;;;7.90;;
25663;SDS011;13522;50.018;20.014;2023-07-09T19:12:25;8.63;;;5.30;;
25663;SDS011;13522;50.018;20.014;2023-07-09T19:15:37;19.30;;;14.80;;
25663;SDS011;13522;50.018;20.014;2023-07-09T19:18:51;25.60;;;20.93;;
25663;SDS011;13522;50.018;20.014;2023-07-09T19:22:05;39.85;;;33.80;;
25663;SDS011;13522;50.018;20.014;2023-07-09T19:25:21;47.83;;;33.03;;